createdAt,value
2023-01-06T00:00:04.630Z,95730.22
2023-01-06T00:02:31.137Z,95727.41
2023-01-06T00:04:57.629Z,95731.94
2023-01-06T00:07:24.077Z,95732.75
2023-01-06T00:09:50.521Z,95748.53
2023-01-06T00:12:19.036Z,95755.41
2023-01-06T00:14:46.673Z,95743.63
2023-01-06T00:17:13.512Z,95753.97
2023-01-06T00:19:40.154Z,95758.13
2023-01-06T00:22:06.672Z,95770.47
2023-01-06T00:24:33.612Z,95757.50
2023-01-06T00:27:00.174Z,95776.06
2023-01-06T00:29:26.911Z,95765.53
2023-01-06T00:31:53.453Z,95763.56
2023-01-06T00:34:19.875Z,95772.06
2023-01-06T00:36:46.402Z,95773.09
2023-01-06T00:39:13.453Z,95775.25
2023-01-06T00:41:59.217Z,95784.28
2023-01-06T00:44:25.671Z,95798.06
2023-01-06T00:46:52.104Z,95787.94
2023-01-06T00:49:18.584Z,95783.31
2023-01-06T00:51:45.105Z,95780.50
2023-01-06T00:54:12.355Z,95806.69
2023-01-06T00:56:39.986Z,95792.91
2023-01-06T00:59:06.933Z,95795.25
2023-01-06T01:01:34.362Z,95823.16
2023-01-06T01:04:00.846Z,95811.28
2023-01-06T01:06:27.267Z,95811.94
2023-01-06T01:08:54.830Z,95796.78
2023-01-06T01:11:40.136Z,95809.59
2023-01-06T01:14:06.985Z,95826.44
2023-01-06T01:16:33.478Z,95823.97
2023-01-06T01:19:00.476Z,95820.91
2023-01-06T01:21:26.891Z,95839.81
2023-01-06T01:23:53.386Z,95834.13
2023-01-06T01:26:19.899Z,95837.84
2023-01-06T01:28:46.364Z,95855.59
2023-01-06T01:31:13.494Z,95836.56
2023-01-06T01:33:39.990Z,95841.16
2023-01-06T01:36:07.276Z,95836.56
2023-01-06T01:38:33.708Z,95840.47
2023-01-06T01:41:00.307Z,95845.06
2023-01-06T01:43:42.661Z,95838.22
2023-01-06T01:46:09.333Z,95849.03
2023-01-06T01:48:35.940Z,95840.56
2023-01-06T01:51:03.950Z,95853.97
2023-01-06T01:53:33.212Z,95840.66
2023-01-06T01:56:01.308Z,95829.78
2023-01-06T01:58:38.775Z,95840.09
2023-01-06T02:01:07.014Z,95849.16
2023-01-06T02:03:33.507Z,95840.75
2023-01-06T02:06:03.167Z,95845.00
2023-01-06T02:08:29.600Z,95841.41
2023-01-06T02:10:56.279Z,95844.03
2023-01-06T02:13:22.876Z,95855.03
2023-01-06T02:15:50.423Z,95858.50
2023-01-06T02:18:22.997Z,95855.59
2023-01-06T02:20:56.143Z,95852.97
2023-01-06T02:23:25.883Z,95854.59
2023-01-06T02:25:55.077Z,95858.75
2023-01-06T02:28:24.673Z,95870.13
2023-01-06T02:31:09.884Z,95855.09
2023-01-06T02:33:51.471Z,95865.06
2023-01-06T02:36:20.886Z,95872.84
2023-01-06T02:39:01.119Z,95880.00
2023-01-06T02:41:30.635Z,95880.72
2023-01-06T02:44:20.562Z,95875.84
2023-01-06T02:46:58.979Z,95882.94
2023-01-06T02:49:32.736Z,95899.66
2023-01-06T02:51:59.155Z,95909.75
2023-01-06T02:54:25.559Z,95912.09
2023-01-06T02:56:57.181Z,95905.91
2023-01-06T02:59:26.627Z,95907.41
2023-01-06T03:01:54.684Z,95923.97
2023-01-06T03:04:24.847Z,95917.09
2023-01-06T03:06:53.178Z,95914.19
2023-01-06T03:09:22.635Z,95918.78
2023-01-06T03:11:50.947Z,95926.63
2023-01-06T03:14:30.783Z,95929.44
2023-01-06T03:16:57.204Z,95934.09
2023-01-06T03:19:24.231Z,95939.16
2023-01-06T03:21:51.530Z,95929.03
2023-01-06T03:24:18.223Z,95931.34
2023-01-06T03:26:45.829Z,95935.63
2023-01-06T03:29:13.440Z,95935.94
2023-01-06T03:31:48.542Z,95941.16
2023-01-06T03:34:27.005Z,95944.41
2023-01-06T03:36:53.399Z,95941.34
2023-01-06T03:39:32.873Z,95934.94
2023-01-06T03:42:34.764Z,95939.53
2023-01-06T03:45:20.136Z,95944.81
2023-01-06T03:47:52.759Z,95946.72
2023-01-06T03:50:51.701Z,95953.97
2023-01-06T03:53:20.907Z,95942.84
2023-01-06T03:55:51.793Z,95944.97
2023-01-06T03:58:19.467Z,95948.75
2023-01-06T04:00:47.022Z,95955.16
2023-01-06T04:03:14.871Z,95964.16
2023-01-06T04:05:41.447Z,95963.66
2023-01-06T04:08:07.883Z,95965.75
2023-01-06T04:10:34.349Z,95978.56
2023-01-06T04:13:00.814Z,95966.78
2023-01-06T04:15:29.389Z,95975.09
2023-01-06T04:17:56.231Z,95976.59
2023-01-06T04:20:24.418Z,95979.88
2023-01-06T04:22:52.692Z,95986.25
2023-01-06T04:25:19.143Z,95986.44
2023-01-06T04:27:45.566Z,95990.06
2023-01-06T04:30:12.203Z,95991.22
2023-01-06T04:32:38.763Z,96001.72
2023-01-06T04:35:05.412Z,96009.88
2023-01-06T04:37:31.922Z,96003.97
2023-01-06T04:39:58.399Z,96009.69
2023-01-06T04:42:24.828Z,96017.25
2023-01-06T04:44:51.339Z,96021.34
2023-01-06T04:47:17.816Z,96018.56
2023-01-06T04:49:44.320Z,96013.66
2023-01-06T04:52:10.763Z,96020.88
2023-01-06T04:54:37.225Z,96030.34
2023-01-06T04:57:03.726Z,96028.56
2023-01-06T04:59:30.155Z,96033.16
2023-01-06T05:01:56.673Z,96037.59
2023-01-06T05:04:23.210Z,96046.75
2023-01-06T05:06:49.721Z,96042.81
2023-01-06T05:09:16.186Z,96059.03
2023-01-06T05:11:42.616Z,96061.22
2023-01-06T05:14:09.051Z,96068.41
2023-01-06T05:16:35.594Z,96067.09
2023-01-06T05:19:02.140Z,96077.94
2023-01-06T05:21:32.291Z,96075.63
2023-01-06T05:23:59.568Z,96077.94
2023-01-06T05:26:27.478Z,96074.31
2023-01-06T05:28:54.266Z,96085.47
2023-01-06T05:31:21.058Z,96083.16
2023-01-06T05:33:47.640Z,96087.94
2023-01-06T05:36:15.627Z,96079.88
2023-01-06T05:38:42.293Z,96088.91
2023-01-06T05:41:08.882Z,96092.69
2023-01-06T05:43:36.016Z,96102.84
2023-01-06T05:46:07.001Z,96095.28
2023-01-06T05:48:33.578Z,96100.22
2023-01-06T05:51:03.795Z,96093.31
2023-01-06T05:53:30.931Z,96094.97
2023-01-06T05:56:03.973Z,96098.22
2023-01-06T05:58:30.492Z,96105.78
2023-01-06T06:00:56.956Z,96105.78
2023-01-06T06:03:23.524Z,96103.16
2023-01-06T06:05:50.016Z,96118.59
2023-01-06T06:08:16.571Z,96122.84
2023-01-06T06:10:43.340Z,96130.03
2023-01-06T06:13:09.825Z,96143.81
2023-01-06T06:15:36.257Z,96137.25
2023-01-06T06:18:03.311Z,96135.78
2023-01-06T06:20:29.940Z,96140.03
2023-01-06T06:22:56.371Z,96140.53
2023-01-06T06:25:22.840Z,96139.53
2023-01-06T06:27:49.258Z,96148.56
2023-01-06T06:30:17.079Z,96145.78
2023-01-06T06:32:43.542Z,96142.81
2023-01-06T06:35:09.988Z,96148.38
2023-01-06T06:37:36.428Z,96145.94
2023-01-06T06:40:03.012Z,96140.53
2023-01-06T06:42:29.459Z,96147.75
2023-01-06T06:44:55.896Z,96143.78
2023-01-06T06:47:22.316Z,96152.31
2023-01-06T06:49:48.755Z,96159.53
2023-01-06T06:52:16.420Z,96161.69
2023-01-06T06:54:42.918Z,96160.84
2023-01-06T06:57:09.395Z,96170.69
2023-01-06T06:59:35.842Z,96183.63
2023-01-06T07:02:02.469Z,96187.09
2023-01-06T07:04:29.155Z,96192.66
2023-01-06T07:06:56.131Z,96186.44
2023-01-06T07:09:22.557Z,96187.09
2023-01-06T07:11:49.048Z,96190.03
2023-01-06T07:14:15.462Z,96189.72
2023-01-06T07:16:41.926Z,96191.50
2023-01-06T07:19:08.742Z,96194.97
2023-01-06T07:21:35.181Z,96193.97
2023-01-06T07:24:01.592Z,96206.59
2023-01-06T07:26:28.066Z,96200.22
2023-01-06T07:28:54.500Z,96201.19
2023-01-06T07:31:21.042Z,96210.38
2023-01-06T07:33:47.503Z,96213.31
2023-01-06T07:36:13.933Z,96210.19
2023-01-06T07:38:40.367Z,96214.31
2023-01-06T07:41:06.815Z,96208.41
2023-01-06T07:43:33.285Z,96212.00
2023-01-06T07:45:59.781Z,96219.72
2023-01-06T07:48:26.276Z,96207.59
2023-01-06T07:50:52.721Z,96214.63
2023-01-06T07:53:19.211Z,96214.28
2023-01-06T07:55:52.666Z,96213.78
2023-01-06T07:58:19.125Z,96214.28
2023-01-06T08:00:45.590Z,96222.03
2023-01-06T08:03:12.347Z,96216.78
2023-01-06T08:05:41.430Z,96220.03
2023-01-06T08:08:07.873Z,96220.69
2023-01-06T08:10:34.336Z,96222.50
2023-01-06T08:13:00.826Z,96224.94
2023-01-06T08:15:27.264Z,96222.31
2023-01-06T08:17:54.306Z,96221.69
2023-01-06T08:20:21.046Z,96217.56
2023-01-06T08:22:47.572Z,96225.44
2023-01-06T08:25:14.053Z,96226.09
2023-01-06T08:27:40.495Z,96229.56
2023-01-06T08:30:07.258Z,96237.94
2023-01-06T08:32:33.697Z,96242.84
2023-01-06T08:35:00.195Z,96245.81
2023-01-06T08:37:26.807Z,96243.66
2023-01-06T08:39:53.253Z,96252.34
2023-01-06T08:42:19.940Z,96252.00
2023-01-06T08:44:46.394Z,96250.38
2023-01-06T08:47:12.820Z,96253.97
2023-01-06T08:49:39.326Z,96253.66
2023-01-06T08:52:06.043Z,96258.09
2023-01-06T08:54:32.492Z,96271.88
2023-01-06T08:56:58.940Z,96253.97
2023-01-06T08:59:25.383Z,96248.41
2023-01-06T09:01:52.306Z,96251.53
2023-01-06T09:04:18.859Z,96252.66
2023-01-06T09:06:47.301Z,96255.47
2023-01-06T09:09:13.817Z,96259.56
2023-01-06T09:11:41.032Z,96253.84
2023-01-06T09:14:08.371Z,96261.03
2023-01-06T09:16:34.820Z,96253.34
2023-01-06T09:19:01.245Z,96263.66
2023-01-06T09:21:27.681Z,96256.78
2023-01-06T09:23:54.175Z,96259.91
2023-01-06T09:26:21.765Z,96257.44
2023-01-06T09:28:48.259Z,96257.28
2023-01-06T09:31:14.797Z,96256.63
2023-01-06T09:33:41.345Z,96243.81
2023-01-06T09:36:07.923Z,96240.03
2023-01-06T09:38:34.362Z,96240.88
2023-01-06T09:41:00.752Z,96237.91
2023-01-06T09:43:27.181Z,96233.66
2023-01-06T09:45:55.150Z,96236.59
2023-01-06T09:48:25.385Z,96238.56
2023-01-06T09:50:54.373Z,96235.63
2023-01-06T09:53:35.936Z,96230.34
2023-01-06T09:56:04.119Z,96242.00
2023-01-06T09:58:42.429Z,96230.31
2023-01-06T10:01:12.275Z,96227.72
2023-01-06T10:03:38.859Z,96227.38
2023-01-06T10:06:24.148Z,96214.56
2023-01-06T10:08:56.424Z,96217.50
2023-01-06T10:11:29.626Z,96228.03
2023-01-06T10:14:04.837Z,96216.84
2023-01-06T10:16:37.528Z,96208.28
2023-01-06T10:19:03.987Z,96205.81
2023-01-06T10:21:41.882Z,96208.28
2023-01-06T10:24:14.029Z,96211.06
2023-01-06T10:26:50.667Z,96202.69
2023-01-06T10:29:18.218Z,96209.91
2023-01-06T10:31:54.315Z,96200.91
2023-01-06T10:34:22.371Z,96205.84
2023-01-06T10:36:53.310Z,96188.94
2023-01-06T10:39:24.443Z,96187.94
2023-01-06T10:42:21.592Z,96185.00
2023-01-06T10:44:48.022Z,96181.38
2023-01-06T10:47:31.908Z,96179.41
2023-01-06T10:49:58.595Z,96171.56
2023-01-06T10:52:26.208Z,96172.53
2023-01-06T10:54:54.998Z,96172.47
2023-01-06T10:57:27.003Z,96174.13
2023-01-06T11:00:12.618Z,96180.03
2023-01-06T11:02:43.526Z,96177.06
2023-01-06T11:05:13.005Z,96169.19
2023-01-06T11:07:45.400Z,96169.03
2023-01-06T11:10:22.887Z,96175.59
2023-01-06T11:12:49.367Z,96165.69
2023-01-06T11:15:22.055Z,96165.66
2023-01-06T11:17:48.915Z,96161.88
2023-01-06T11:20:18.388Z,96160.72
2023-01-06T11:22:44.989Z,96157.59
2023-01-06T11:25:20.319Z,96160.88
2023-01-06T11:27:47.466Z,96159.78
2023-01-06T11:30:27.228Z,96151.84
2023-01-06T11:32:54.041Z,96154.47
2023-01-06T11:35:21.652Z,96156.75
2023-01-06T11:37:48.274Z,96153.28
2023-01-06T11:40:19.862Z,96156.38
2023-01-06T11:42:52.012Z,96145.03
2023-01-06T11:45:35.985Z,96140.44
2023-01-06T11:48:08.761Z,96142.34
2023-01-06T11:50:35.245Z,96139.44
2023-01-06T11:53:03.082Z,96141.06
2023-01-06T11:55:30.722Z,96138.44
2023-01-06T11:58:19.101Z,96140.09
2023-01-06T12:00:47.978Z,96132.84
2023-01-06T12:03:20.442Z,96141.38
2023-01-06T12:06:05.638Z,96140.19
2023-01-06T12:08:43.948Z,96139.84
2023-01-06T12:11:17.981Z,96128.53
2023-01-06T12:14:01.670Z,96122.56
2023-01-06T12:16:41.096Z,96114.63
2023-01-06T12:19:15.644Z,96119.56
2023-01-06T12:21:42.407Z,96113.47
2023-01-06T12:24:13.527Z,96107.72
2023-01-06T12:26:40.568Z,96116.88
2023-01-06T12:29:07.447Z,96118.53
2023-01-06T12:31:45.358Z,96117.81
2023-01-06T12:34:23.187Z,96137.06
2023-01-06T12:36:56.500Z,96131.63
2023-01-06T12:39:25.720Z,96126.66
2023-01-06T12:41:56.766Z,96131.56
2023-01-06T12:44:42.075Z,96132.19
2023-01-06T12:47:26.672Z,96134.03
2023-01-06T12:50:02.315Z,96128.91
2023-01-06T12:52:33.058Z,96140.09
2023-01-06T12:55:00.246Z,96143.00
2023-01-06T12:57:36.227Z,96136.78
2023-01-06T13:00:19.019Z,96134.47
2023-01-06T13:03:04.387Z,96140.66
2023-01-06T13:05:45.112Z,96126.22
2023-01-06T13:08:21.013Z,96119.75
2023-01-06T13:10:58.517Z,96125.16
2023-01-06T13:13:43.587Z,96123.97
2023-01-06T13:16:33.352Z,96123.41
2023-01-06T13:19:08.419Z,96109.38
2023-01-06T13:21:35.975Z,96115.75
2023-01-06T13:24:11.880Z,96119.03
2023-01-06T13:26:56.939Z,96121.00
2023-01-06T13:29:26.421Z,96118.19
2023-01-06T13:32:09.316Z,96110.13
2023-01-06T13:34:52.873Z,96118.19
2023-01-06T13:37:19.995Z,96119.81
2023-01-06T13:39:50.203Z,96108.13
2023-01-06T13:42:19.664Z,96108.59
2023-01-06T13:44:47.406Z,96111.69
2023-01-06T13:47:19.582Z,96115.94
2023-01-06T13:49:46.123Z,96112.31
2023-01-06T13:52:22.042Z,96105.41
2023-01-06T13:54:48.455Z,96103.13
2023-01-06T13:57:34.795Z,96111.22
2023-01-06T14:00:01.189Z,96101.22
2023-01-06T14:02:37.840Z,96109.47
2023-01-06T14:05:25.204Z,96101.13
2023-01-06T14:07:56.151Z,96126.63
2023-01-06T14:10:34.858Z,96128.81
2023-01-06T14:13:02.665Z,96134.59
2023-01-06T14:15:33.350Z,96139.38
2023-01-06T14:18:00.533Z,96138.59
2023-01-06T14:20:31.898Z,96117.72
2023-01-06T14:23:21.554Z,96119.44
2023-01-06T14:25:53.160Z,96116.66
2023-01-06T14:28:19.547Z,96107.47
2023-01-06T14:30:46.629Z,96117.34
2023-01-06T14:33:24.729Z,96111.13
2023-01-06T14:35:54.653Z,96110.78
2023-01-06T14:38:21.055Z,96099.97
2023-01-06T14:40:59.040Z,96097.53
2023-01-06T14:43:31.110Z,96103.16
2023-01-06T14:46:01.811Z,96109.59
2023-01-06T14:48:28.892Z,96105.31
2023-01-06T14:50:58.846Z,96101.75
2023-01-06T14:53:28.490Z,96091.94
2023-01-06T14:55:55.348Z,96100.81
2023-01-06T14:58:27.419Z,96095.44
2023-01-06T15:00:53.877Z,96097.59
2023-01-06T15:03:21.675Z,96109.97
2023-01-06T15:05:48.234Z,96096.03
2023-01-06T15:08:19.043Z,96090.13
2023-01-06T15:10:46.760Z,96099.34
2023-01-06T15:13:30.204Z,96089.84
2023-01-06T15:15:59.738Z,96079.69
2023-01-06T15:18:26.218Z,96084.28
2023-01-06T15:20:54.200Z,96067.41
2023-01-06T15:23:21.484Z,96073.00
2023-01-06T15:25:49.203Z,96068.91
2023-01-06T15:28:29.030Z,96077.16
2023-01-06T15:30:56.018Z,96064.72
2023-01-06T15:33:23.767Z,96064.06
2023-01-06T15:35:51.165Z,96057.34
2023-01-06T15:38:20.591Z,96057.03
2023-01-06T15:40:47.065Z,96064.44
2023-01-06T15:43:16.931Z,96057.91
2023-01-06T15:45:44.206Z,96065.31
2023-01-06T15:48:12.325Z,96062.22
2023-01-06T15:50:38.839Z,96061.25
2023-01-06T15:53:06.899Z,96064.41
2023-01-06T15:55:34.908Z,96062.28
2023-01-06T15:58:01.426Z,96079.22
2023-01-06T16:00:36.336Z,96103.00
2023-01-06T16:03:04.167Z,96087.75
2023-01-06T16:05:40.288Z,96089.09
2023-01-06T16:08:15.792Z,96097.63
2023-01-06T16:10:42.483Z,96096.19
2023-01-06T16:13:29.025Z,96094.69
2023-01-06T16:16:19.608Z,96095.88
2023-01-06T16:18:46.581Z,96105.38
2023-01-06T16:21:17.691Z,96098.50
2023-01-06T16:23:48.845Z,96093.56
2023-01-06T16:26:17.741Z,96087.84
2023-01-06T16:28:46.850Z,96087.38
2023-01-06T16:31:14.595Z,96097.38
2023-01-06T16:33:42.497Z,96103.75
2023-01-06T16:36:11.849Z,96109.34
2023-01-06T16:38:38.897Z,96111.81
2023-01-06T16:41:05.461Z,96101.13
2023-01-06T16:43:31.879Z,96106.03
2023-01-06T16:46:02.247Z,96110.66
2023-01-06T16:48:28.703Z,96109.34
2023-01-06T16:50:56.480Z,96113.63
2023-01-06T16:53:23.419Z,96112.00
2023-01-06T16:55:53.835Z,96106.75
2023-01-06T16:58:26.034Z,96112.78
2023-01-06T17:00:54.374Z,96108.72
2023-01-06T17:03:22.451Z,96098.22
2023-01-06T17:05:48.915Z,96093.47
2023-01-06T17:08:16.310Z,96081.63
2023-01-06T17:10:43.091Z,96086.88
2023-01-06T17:13:32.217Z,96083.13
2023-01-06T17:16:00.329Z,96073.44
2023-01-06T17:18:30.736Z,96071.63
2023-01-06T17:21:03.954Z,96073.63
2023-01-06T17:23:36.308Z,96075.25
2023-01-06T17:26:09.891Z,96073.63
2023-01-06T17:28:37.555Z,96077.22
2023-01-06T17:31:06.648Z,96072.78
2023-01-06T17:33:33.153Z,96076.25
2023-01-06T17:35:59.963Z,96082.28
2023-01-06T17:38:26.416Z,96078.69
2023-01-06T17:40:54.807Z,96086.41
2023-01-06T17:43:24.304Z,96081.16
2023-01-06T17:45:50.992Z,96081.16
2023-01-06T17:48:17.532Z,96082.78
2023-01-06T17:50:52.387Z,96079.81
2023-01-06T17:53:41.036Z,96085.06
2023-01-06T17:56:08.975Z,96086.53
2023-01-06T17:58:39.869Z,96079.63
2023-01-06T18:01:07.770Z,96080.47
2023-01-06T18:03:37.043Z,96078.84
2023-01-06T18:06:03.462Z,96076.03
2023-01-06T18:08:31.683Z,96082.75
2023-01-06T18:11:06.389Z,96073.91
2023-01-06T18:13:35.842Z,96069.47
2023-01-06T18:16:05.899Z,96072.91
2023-01-06T18:18:36.549Z,96081.78
2023-01-06T18:21:05.466Z,96076.53
2023-01-06T18:23:33.218Z,96078.84
2023-01-06T18:26:01.152Z,96088.03
2023-01-06T18:28:28.562Z,96087.06
2023-01-06T18:30:57.458Z,96079.63
2023-01-06T18:33:24.591Z,96082.13
2023-01-06T18:35:57.139Z,96073.25
2023-01-06T18:38:27.250Z,96079.16
2023-01-06T18:40:54.603Z,96084.56
2023-01-06T18:43:29.682Z,96083.75
2023-01-06T18:45:58.151Z,96089.16
2023-01-06T18:48:27.760Z,96083.94
2023-01-06T18:50:56.025Z,96078.88
2023-01-06T18:53:25.221Z,96073.44
2023-01-06T18:55:53.915Z,96073.44
2023-01-06T18:58:23.121Z,96073.94
2023-01-06T19:00:57.364Z,96071.66
2023-01-06T19:03:23.857Z,96075.59
2023-01-06T19:05:52.305Z,96080.31
2023-01-06T19:08:21.625Z,96078.34
2023-01-06T19:10:49.263Z,96078.19
2023-01-06T19:13:19.159Z,96073.09
2023-01-06T19:15:45.964Z,96073.28
2023-01-06T19:18:14.754Z,96072.28
2023-01-06T19:20:41.627Z,96076.56
2023-01-06T19:23:24.722Z,96077.25
2023-01-06T19:26:03.371Z,96078.53
2023-01-06T19:28:31.318Z,96069.34
2023-01-06T19:30:58.420Z,96074.25
2023-01-06T19:33:24.950Z,96081.63
2023-01-06T19:35:52.892Z,96071.13
2023-01-06T19:38:19.345Z,96078.84
2023-01-06T19:40:45.773Z,96080.47
2023-01-06T19:43:16.458Z,96071.13
2023-01-06T19:45:43.364Z,96071.00
2023-01-06T19:48:36.100Z,96070.34
2023-01-06T19:51:20.652Z,96065.56
2023-01-06T19:54:13.428Z,96059.81
2023-01-06T19:56:43.070Z,96068.69
2023-01-06T19:59:16.966Z,96058.19
2023-01-06T20:01:44.395Z,96056.19
2023-01-06T20:04:22.680Z,96063.09
2023-01-06T20:06:49.362Z,96065.53
2023-01-06T20:09:16.207Z,96063.56
2023-01-06T20:11:42.910Z,96062.75
2023-01-06T20:14:09.933Z,96069.63
2023-01-06T20:16:37.000Z,96066.69
2023-01-06T20:19:04.426Z,96077.66
2023-01-06T20:21:30.898Z,96079.13
2023-01-06T20:23:58.506Z,96065.34
2023-01-06T20:26:25.305Z,96070.75
2023-01-06T20:28:52.080Z,96067.66
2023-01-06T20:31:18.729Z,96079.63
2023-01-06T20:33:46.118Z,96078.19
2023-01-06T20:36:17.078Z,96077.66
2023-01-06T20:38:44.550Z,96071.09
2023-01-06T20:41:11.075Z,96071.75
2023-01-06T20:43:37.661Z,96081.94
2023-01-06T20:46:04.264Z,96080.47
2023-01-06T20:48:30.763Z,96069.00
2023-01-06T20:50:57.323Z,96065.84
2023-01-06T20:53:23.945Z,96068.13
2023-01-06T20:55:50.373Z,96069.31
2023-01-06T20:58:16.847Z,96079.47
2023-01-06T21:00:43.438Z,96076.66
2023-01-06T21:03:09.991Z,96075.19
2023-01-06T21:05:36.473Z,96079.13
2023-01-06T21:08:03.034Z,96076.50
2023-01-06T21:10:29.589Z,96072.91
2023-01-06T21:12:57.617Z,96077.81
2023-01-06T21:15:26.226Z,96077.66
2023-01-06T21:17:52.931Z,96076.50
2023-01-06T21:20:19.442Z,96080.78
2023-01-06T21:22:45.947Z,96085.50
2023-01-06T21:25:12.398Z,96066.78
2023-01-06T21:27:38.814Z,96077.31
2023-01-06T21:30:05.489Z,96079.13
2023-01-06T21:32:31.911Z,96076.97
2023-01-06T21:34:58.709Z,96068.94
2023-01-06T21:37:25.185Z,96072.91
2023-01-06T21:39:51.621Z,96069.94
2023-01-06T21:42:36.753Z,96077.81
2023-01-06T21:45:03.448Z,96076.19
2023-01-06T21:47:29.880Z,96076.19
2023-01-06T21:49:56.313Z,96074.06
2023-01-06T21:52:22.791Z,96074.72
2023-01-06T21:54:49.500Z,96072.56
2023-01-06T21:57:15.994Z,96078.47
2023-01-06T21:59:42.514Z,96088.31
2023-01-06T22:02:09.451Z,96080.78
2023-01-06T22:04:36.041Z,96087.94
2023-01-06T22:07:05.164Z,96069.06
2023-01-06T22:09:32.102Z,96074.84
2023-01-06T22:12:00.109Z,96064.69
2023-01-06T22:14:26.561Z,96073.22
2023-01-06T22:16:54.651Z,96072.72
2023-01-06T22:19:21.235Z,96089.94
2023-01-06T22:21:47.752Z,96083.41
2023-01-06T22:24:15.172Z,96087.31
2023-01-06T22:26:41.655Z,96094.66
2023-01-06T22:29:08.363Z,96084.97
2023-01-06T22:31:35.683Z,96082.06
2023-01-06T22:34:02.224Z,96090.94
2023-01-06T22:36:28.754Z,96090.09
2023-01-06T22:38:55.193Z,96093.91
2023-01-06T22:41:21.655Z,96087.00
2023-01-06T22:43:48.097Z,96092.56
2023-01-06T22:46:15.700Z,96089.25
2023-01-06T22:48:44.843Z,96094.81
2023-01-06T22:51:11.955Z,96091.84
2023-01-06T22:53:38.403Z,96090.06
2023-01-06T22:56:06.444Z,96108.25
2023-01-06T22:58:33.634Z,96109.22
2023-01-06T23:01:00.372Z,96103.81
2023-01-06T23:03:27.072Z,96100.03
2023-01-06T23:05:57.945Z,96096.22
2023-01-06T23:08:25.986Z,96101.50
2023-01-06T23:10:58.106Z,96091.81
2023-01-06T23:13:24.533Z,96092.28
2023-01-06T23:15:58.489Z,96090.50
2023-01-06T23:18:24.932Z,96098.38
2023-01-06T23:21:01.852Z,96101.78
2023-01-06T23:23:28.755Z,96103.63
2023-01-06T23:26:00.595Z,96098.38
2023-01-06T23:28:28.072Z,96107.88
2023-01-06T23:30:59.945Z,96112.94
2023-01-06T23:33:26.463Z,96110.50
2023-01-06T23:35:52.916Z,96114.47
2023-01-06T23:38:19.314Z,96116.09
2023-01-06T23:40:45.799Z,96109.22
2023-01-06T23:43:12.217Z,96107.22
2023-01-06T23:45:38.647Z,96113.66
2023-01-06T23:48:05.168Z,96110.84
2023-01-06T23:50:31.594Z,96112.28
2023-01-06T23:52:58.134Z,96106.91
2023-01-06T23:55:24.588Z,96107.53
2023-01-06T23:57:51.024Z,96111.81
